Time;durP1;ratioP1;P1;durP2;ratioP2;P2;SDS_P1;SDS_P2;PMS_P1;PMS_P2;Temp;Humidity;BMP_temperature;BMP_pressure;BME280_temperature;BME280_humidity;BME280_pressure;Samples;Min_cycle;Max_cycle;Signal;HPM_P1;HPM_P2
2024/01/18 00:00:13;;;;;;;2.80;0.10;;;-0.20;99.90;;;;;;5071324;28;20760;-93
2024/01/18 00:02:39;;;;;;;4.28;0.13;;;-0.20;99.90;;;;;;5071605;28;20448;-94
2024/01/18 00:05:06;;;;;;;2.97;0.22;;;-0.20;99.90;;;;;;5069748;28;20473;-91
2024/01/18 00:07:32;;;;;;;2.93;0.10;;;-0.30;99.90;;;;;;5071830;28;20424;-93
2024/01/18 00:09:58;;;;;;;3.67;0.10;;;-0.40;99.90;;;;;;5069583;28;20465;-93
2024/01/18 00:12:23;;;;;;;5.22;0.30;;;-0.10;99.90;;;;;;5071332;28;20406;-92
2024/01/18 00:14:49;;;;;;;2.30;0.10;;;-0.50;99.90;;;;;;5069689;28;20424;-93
2024/01/18 00:17:16;;;;;;;2.47;0.30;;;-0.50;99.90;;;;;;5071407;28;20734;-93
2024/01/18 00:19:42;;;;;;;3.28;0.43;;;-0.60;99.90;;;;;;5070444;28;20417;-93
2024/01/18 00:22:07;;;;;;;4.47;0.30;;;-0.70;99.90;;;;;;5070032;28;20429;-92
2024/01/18 00:24:33;;;;;;;3.30;0.30;;;-0.80;99.90;;;;;;5071217;28;20418;-93
2024/01/18 00:27:00;;;;;;;5.23;0.20;;;-0.90;99.90;;;;;;5069394;28;20422;-92
2024/01/18 00:29:26;;;;;;;4.72;0.35;;;-0.90;99.90;;;;;;5071046;28;20932;-93
2024/01/18 00:31:52;;;;;;;3.63;0.20;;;-1.00;99.90;;;;;;5068853;28;20405;-94
2024/01/18 00:34:18;;;;;;;3.10;0.10;;;-1.00;99.90;;;;;;5071525;28;20429;-93
2024/01/18 00:36:46;;;;;;;4.60;0.10;;;-1.00;99.90;;;;;;5069837;28;20410;-92
2024/01/18 00:39:16;;;;;;;5.47;0.20;;;-1.20;99.90;;;;;;5070219;28;20398;-93
2024/01/18 00:41:43;;;;;;;5.80;0.13;;;-1.20;99.90;;;;;;5071043;28;20425;-92
2024/01/18 00:44:09;;;;;;;4.13;0.10;;;-1.20;99.90;;;;;;5069674;28;20493;-92
2024/01/18 00:46:34;;;;;;;4.13;0.13;;;-1.20;99.90;;;;;;5071336;28;21072;-93
2024/01/18 00:49:00;;;;;;;5.00;0.20;;;-1.20;99.90;;;;;;5068766;28;20746;-92
2024/01/18 00:51:26;;;;;;;4.07;0.20;;;-1.30;99.90;;;;;;5071079;28;20757;-93
2024/01/18 00:53:52;;;;;;;6.70;0.30;;;-1.20;99.90;;;;;;5069507;28;20421;-91
2024/01/18 00:56:17;;;;;;;6.78;0.30;;;-1.30;99.90;;;;;;5071312;28;20400;-93
2024/01/18 00:58:44;;;;;;;3.38;0.20;;;-1.30;99.90;;;;;;5070648;28;20402;-94
2024/01/18 01:01:10;;;;;;;3.17;0.30;;;-1.30;99.90;;;;;;5069109;28;20865;-93
2024/01/18 01:03:36;;;;;;;3.75;0.20;;;-1.30;99.90;;;;;;5070921;28;20394;-93
2024/01/18 01:06:02;;;;;;;3.67;0.20;;;-1.50;99.90;;;;;;5068619;28;20437;-94
2024/01/18 01:08:28;;;;;;;4.20;0.43;;;-1.40;99.90;;;;;;5071009;28;20436;-93
2024/01/18 01:10:54;;;;;;;4.68;0.28;;;-1.40;99.90;;;;;;5068973;28;20458;-92
2024/01/18 01:13:19;;;;;;;4.35;0.25;;;-1.40;99.90;;;;;;5071065;28;20398;-93
2024/01/18 01:15:45;;;;;;;3.95;0.30;;;-1.40;99.90;;;;;;5069763;28;20410;-93
2024/01/18 01:18:11;;;;;;;4.53;0.20;;;-1.50;99.90;;;;;;5069849;28;20425;-94
2024/01/18 01:20:37;;;;;;;6.60;0.40;;;-1.40;99.90;;;;;;5070722;28;20418;-92
2024/01/18 01:23:03;;;;;;;5.53;0.20;;;-1.60;99.90;;;;;;5068614;28;20495;-93
2024/01/18 01:25:29;;;;;;;4.28;0.20;;;-1.60;99.90;;;;;;5070989;28;20398;-93
2024/01/18 01:27:55;;;;;;;6.50;0.40;;;-1.70;99.90;;;;;;5068832;28;20398;-93
2024/01/18 01:30:21;;;;;;;3.65;0.20;;;-1.70;99.90;;;;;;5070853;28;20485;-92
2024/01/18 01:32:47;;;;;;;3.28;0.38;;;-1.80;99.90;;;;;;5069428;28;20402;-93
2024/01/18 01:35:13;;;;;;;5.28;0.40;;;-1.80;99.90;;;;;;5070357;28;20444;-92
2024/01/18 01:37:40;;;;;;;5.00;0.75;;;-1.80;99.90;;;;;;5069979;28;22865;-92
2024/01/18 01:40:07;;;;;;;4.73;0.50;;;-1.80;99.90;;;;;;5069835;28;20394;-92
2024/01/18 01:42:33;;;;;;;3.35;0.60;;;-1.90;99.90;;;;;;5074500;28;20409;-94
2024/01/18 01:44:59;;;;;;;4.80;0.60;;;-1.90;99.90;;;;;;5072557;28;21085;-92
2024/01/18 01:47:25;;;;;;;2.83;0.67;;;-1.90;99.90;;;;;;5074422;28;20410;-93
2024/01/18 01:49:51;;;;;;;6.53;3.40;;;-1.90;99.90;;;;;;5072502;28;20398;-94
2024/01/18 01:52:18;;;;;;;5.43;2.30;;;-2.00;99.90;;;;;;5074115;28;20939;-94
2024/01/18 01:54:47;;;;;;;6.13;2.10;;;-2.00;99.90;;;;;;5073480;28;20971;-94
2024/01/18 01:57:15;;;;;;;8.05;2.00;;;-2.00;99.90;;;;;;5072624;28;20430;-95
2024/01/18 01:59:41;;;;;;;5.03;2.03;;;-2.00;99.90;;;;;;5074489;28;20430;-95
2024/01/18 02:02:07;;;;;;;4.80;1.90;;;-2.00;99.90;;;;;;5073761;28;20433;-95
2024/01/18 02:04:33;;;;;;;6.40;2.77;;;-2.10;99.90;;;;;;5073834;28;21007;-96
2024/01/18 02:06:59;;;;;;;6.35;2.72;;;-2.20;99.90;;;;;;5071646;28;20394;-94
2024/01/18 02:09:25;;;;;;;7.50;3.03;;;-2.20;99.90;;;;;;5073898;28;20394;-95
2024/01/18 02:11:52;;;;;;;6.07;2.57;;;-2.20;99.90;;;;;;5072744;28;20402;-95
2024/01/18 02:14:18;;;;;;;2.88;1.17;;;-2.20;99.90;;;;;;5072885;28;20452;-94
2024/01/18 02:16:44;;;;;;;6.30;1.07;;;-2.30;99.90;;;;;;5073685;28;20406;-93
2024/01/18 02:19:10;;;;;;;6.13;0.57;;;-2.10;99.90;;;;;;5071923;28;20402;-95
2024/01/18 02:21:36;;;;;;;3.30;0.60;;;-2.30;99.90;;;;;;5073798;28;20458;-94
2024/01/18 02:24:16;;;;;;;3.55;0.70;;;-2.30;99.90;;;;;;5071174;28;20485;-94
2024/01/18 02:26:42;;;;;;;4.57;0.40;;;-2.20;99.90;;;;;;5073875;28;20413;-95
2024/01/18 02:29:08;;;;;;;4.93;0.57;;;-2.40;99.90;;;;;;5072082;28;20410;-94
2024/01/18 02:31:33;;;;;;;2.30;0.40;;;-2.40;99.90;;;;;;5072712;28;21080;-94
2024/01/18 02:33:59;;;;;;;4.80;0.30;;;-2.40;99.90;;;;;;5073416;28;20444;-94
2024/01/18 02:36:25;;;;;;;3.53;0.40;;;-2.50;99.90;;;;;;5071343;28;20390;-94
2024/01/18 02:38:52;;;;;;;6.25;0.70;;;-2.40;99.90;;;;;;5073150;28;20405;-95
2024/01/18 02:41:18;;;;;;;5.22;0.50;;;-2.40;99.90;;;;;;5071171;28;20410;-94
2024/01/18 02:43:44;;;;;;;5.90;0.50;;;-2.40;99.90;;;;;;5072988;28;20416;-93
2024/01/18 02:46:14;;;;;;;6.60;0.40;;;-2.30;99.90;;;;;;5071827;28;20442;-95
2024/01/18 02:48:40;;;;;;;2.90;0.30;;;-2.20;99.90;;;;;;5072538;28;20410;-93
2024/01/18 02:51:05;;;;;;;4.23;0.40;;;-2.30;99.90;;;;;;5072145;28;20762;-94
2024/01/18 02:53:31;;;;;;;3.07;0.40;;;-2.20;99.90;;;;;;5070761;28;20831;-94
2024/01/18 02:55:57;;;;;;;3.10;0.40;;;-2.10;99.90;;;;;;5073039;28;20420;-95
2024/01/18 02:58:22;;;;;;;4.10;0.30;;;-2.30;99.90;;;;;;5070981;28;20461;-93
2024/01/18 03:00:48;;;;;;;4.68;0.30;;;-2.30;99.90;;;;;;5072802;28;20774;-93
2024/01/18 03:03:14;;;;;;;7.30;0.60;;;-2.20;99.90;;;;;;5070648;28;20402;-93
2024/01/18 03:05:40;;;;;;;3.97;0.32;;;-2.20;99.90;;;;;;5072952;28;20413;-93
2024/01/18 03:08:06;;;;;;;5.18;0.52;;;-2.20;99.90;;;;;;5071223;28;20402;-92
2024/01/18 03:10:32;;;;;;;6.28;0.38;;;-2.20;99.90;;;;;;5071463;28;20932;-92
2024/01/18 03:12:58;;;;;;;4.80;0.40;;;-2.10;99.90;;;;;;5072660;28;20451;-92
2024/01/18 03:15:23;;;;;;;3.87;0.30;;;-2.00;99.90;;;;;;5071170;28;20410;-92
2024/01/18 03:17:49;;;;;;;4.68;0.40;;;-1.80;99.90;;;;;;5072759;28;20394;-94
2024/01/18 03:20:15;;;;;;;6.47;0.32;;;-1.80;99.90;;;;;;5070656;28;20449;-92
2024/01/18 03:22:41;;;;;;;4.72;0.28;;;-1.80;99.90;;;;;;5072110;28;20406;-94
2024/01/18 03:25:07;;;;;;;4.47;0.20;;;-1.80;99.90;;;;;;5070514;28;20493;-93
2024/01/18 03:27:33;;;;;;;4.17;0.30;;;-1.80;99.90;;;;;;5072031;28;20405;-95
2024/01/18 03:29:58;;;;;;;5.43;0.40;;;-1.80;99.90;;;;;;5071548;28;20402;-93
2024/01/18 03:32:24;;;;;;;4.70;0.23;;;-1.90;99.90;;;;;;5070474;28;20915;-94
2024/01/18 03:34:50;;;;;;;3.87;0.20;;;-1.90;99.90;;;;;;5071762;28;20989;-94
2024/01/18 03:37:16;;;;;;;4.90;0.20;;;-1.90;99.90;;;;;;5070070;28;20805;-95
2024/01/18 03:39:42;;;;;;;3.00;0.20;;;-1.90;99.90;;;;;;5071865;28;20406;-94
2024/01/18 03:42:08;;;;;;;4.87;0.20;;;-2.10;99.90;;;;;;5069790;28;20436;-96
2024/01/18 03:44:34;;;;;;;5.37;0.20;;;-2.00;99.90;;;;;;5072130;28;20401;-93
2024/01/18 03:47:00;;;;;;;5.45;0.25;;;-1.70;99.90;;;;;;5070898;28;20409;-94
2024/01/18 03:49:26;;;;;;;4.53;0.25;;;-2.00;99.90;;;;;;5070846;28;20925;-94
2024/01/18 03:51:52;;;;;;;4.32;0.20;;;-2.00;99.90;;;;;;5071801;28;20401;-94
2024/01/18 03:54:21;;;;;;;5.10;0.30;;;-2.00;99.90;;;;;;5069541;28;20482;-94
2024/01/18 03:56:47;;;;;;;2.22;0.20;;;-2.10;99.90;;;;;;5071815;28;20437;-94
2024/01/18 03:59:16;;;;;;;5.40;0.20;;;-2.10;99.90;;;;;;5069450;28;20451;-93
2024/01/18 04:01:43;;;;;;;4.53;0.20;;;-2.00;99.90;;;;;;5071690;28;20433;-95
2024/01/18 04:04:09;;;;;;;5.25;0.20;;;-2.20;99.90;;;;;;5069766;28;20448;-94
2024/01/18 04:06:34;;;;;;;5.75;0.20;;;-2.20;99.90;;;;;;5070457;28;20441;-93
2024/01/18 04:09:00;;;;;;;4.97;0.30;;;-2.30;99.90;;;;;;5071917;28;20425;-94
2024/01/18 04:11:26;;;;;;;3.78;0.60;;;-2.30;99.90;;;;;;5069758;28;20493;-93
2024/01/18 04:13:52;;;;;;;5.82;0.70;;;-2.40;99.90;;;;;;5071220;28;20417;-94
2024/01/18 04:16:18;;;;;;;4.43;0.40;;;-2.50;99.90;;;;;;5069355;28;20398;-93
2024/01/18 04:18:44;;;;;;;3.08;0.30;;;-2.50;99.90;;;;;;5071281;28;20397;-93
2024/01/18 04:21:10;;;;;;;5.65;0.30;;;-2.60;99.90;;;;;;5069384;28;20422;-95
2024/01/18 04:23:36;;;;;;;3.97;0.20;;;-2.50;99.90;;;;;;5071019;28;20464;-94
2024/01/18 04:26:01;;;;;;;3.60;0.20;;;-2.40;99.90;;;;;;5070180;28;21009;-93
2024/01/18 04:28:28;;;;;;;2.00;0.20;;;-2.30;99.90;;;;;;5069389;28;21190;-94
2024/01/18 04:30:54;;;;;;;5.70;0.30;;;-2.30;99.90;;;;;;5071007;28;20406;-94
2024/01/18 04:33:19;;;;;;;3.58;0.30;;;-2.30;99.90;;;;;;5068967;28;20409;-94
2024/01/18 04:35:45;;;;;;;2.97;0.30;;;-2.20;99.90;;;;;;5071008;28;20409;-95
2024/01/18 04:38:12;;;;;;;4.03;0.30;;;-2.20;99.90;;;;;;5069360;28;20486;-94
2024/01/18 04:40:38;;;;;;;2.90;0.30;;;-2.20;99.90;;;;;;5071061;28;20750;-93
2024/01/18 04:43:04;;;;;;;3.20;0.20;;;-2.00;99.90;;;;;;5070402;28;20444;-94
2024/01/18 04:45:29;;;;;;;7.17;0.50;;;-1.90;99.90;;;;;;5070646;28;20950;-93
2024/01/18 04:47:56;;;;;;;3.20;0.40;;;-1.80;99.90;;;;;;5070676;28;20417;-93
2024/01/18 04:50:25;;;;;;;4.68;0.30;;;-1.50;99.90;;;;;;5069628;28;20418;-94
2024/01/18 04:52:52;;;;;;;5.25;0.20;;;-1.40;99.90;;;;;;5071289;28;20486;-93
2024/01/18 04:55:17;;;;;;;4.38;0.20;;;-1.30;99.90;;;;;;5068930;28;20414;-94
2024/01/18 04:57:44;;;;;;;3.03;0.10;;;-1.20;99.90;;;;;;5071090;28;21221;-93
2024/01/18 05:00:10;;;;;;;4.53;0.20;;;-1.20;99.90;;;;;;5069137;28;20421;-93
2024/01/18 05:02:40;;;;;;;4.63;0.30;;;-1.10;99.90;;;;;;5070475;28;20766;-91
2024/01/18 05:05:10;;;;;;;3.28;0.20;;;-1.00;99.90;;;;;;5079411;28;20412;-91
2024/01/18 05:07:40;;;;;;;5.45;0.22;;;-0.80;99.90;;;;;;5089401;28;20429;-91
2024/01/18 05:10:08;;;;;;;4.25;0.10;;;-0.80;99.90;;;;;;5091268;28;20415;-91
2024/01/18 05:12:35;;;;;;;4.00;0.10;;;-0.70;99.90;;;;;;5089256;28;21069;-92
2024/01/18 05:15:01;;;;;;;3.03;0.20;;;-0.70;99.90;;;;;;5082538;28;20481;-91
2024/01/18 05:17:36;;;;;;;3.17;0.20;;;-0.50;99.90;;;;;;5074164;28;20489;-91
2024/01/18 05:20:06;;;;;;;5.47;0.40;;;-0.30;99.90;;;;;;5074428;28;20406;-91
2024/01/18 05:22:32;;;;;;;5.47;0.33;;;-0.30;99.90;;;;;;5074612;28;20924;-93
2024/01/18 05:25:02;;;;;;;4.13;0.10;;;0.10;99.90;;;;;;5072789;28;20417;-93
2024/01/18 05:27:29;;;;;;;4.10;0.13;;;0.00;99.90;;;;;;5074932;28;20409;-94
2024/01/18 05:29:59;;;;;;;2.93;0.20;;;0.20;99.90;;;;;;5072320;28;20455;-93
2024/01/18 05:32:24;;;;;;;3.95;0.20;;;0.10;99.90;;;;;;5075123;28;20412;-95
2024/01/18 05:34:50;;;;;;;2.88;0.10;;;-0.20;99.90;;;;;;5073063;28;20960;-94
2024/01/18 05:37:17;;;;;;;4.35;0.10;;;-0.30;99.90;;;;;;5074444;28;20475;-94
2024/01/18 05:39:42;;;;;;;2.60;0.32;;;-0.20;99.90;;;;;;5074133;28;20435;-94
2024/01/18 05:42:08;;;;;;;4.00;0.10;;;-0.30;99.90;;;;;;5072593;28;21031;-92
2024/01/18 05:44:34;;;;;;;2.57;0.10;;;-0.40;99.90;;;;;;5074678;28;21225;-94
2024/01/18 05:47:00;;;;;;;5.63;0.20;;;-0.70;99.90;;;;;;5072142;28;20402;-93
2024/01/18 05:49:26;;;;;;;2.17;0.10;;;-0.40;99.90;;;;;;5074347;28;20413;-93
2024/01/18 05:51:52;;;;;;;4.00;0.17;;;-0.60;99.90;;;;;;5072321;28;20405;-93
2024/01/18 05:54:17;;;;;;;2.00;0.10;;;-0.60;99.90;;;;;;5073829;28;20398;-94
2024/01/18 05:56:46;;;;;;;3.40;0.20;;;-0.70;99.90;;;;;;5073578;28;20417;-93
2024/01/18 05:59:12;;;;;;;2.97;0.13;;;-0.90;99.90;;;;;;5072093;28;20394;-93
2024/01/18 06:01:37;;;;;;;2.78;0.10;;;-1.00;99.90;;;;;;5073830;28;20974;-93
2024/01/18 06:04:03;;;;;;;3.37;0.23;;;-0.90;99.90;;;;;;5071777;28;20406;-92
2024/01/18 06:06:31;;;;;;;4.32;0.10;;;-1.10;99.90;;;;;;5074152;28;20401;-92
2024/01/18 06:08:57;;;;;;;3.08;0.50;;;-1.10;99.90;;;;;;5071754;28;20893;-93
2024/01/18 06:11:22;;;;;;;3.20;0.10;;;-1.20;99.90;;;;;;5074188;28;20467;-93
2024/01/18 06:13:48;;;;;;;4.95;0.22;;;-1.40;99.90;;;;;;5072343;28;20398;-93
2024/01/18 06:16:15;;;;;;;6.07;0.13;;;-1.20;99.90;;;;;;5072701;28;20427;-94
2024/01/18 06:18:42;;;;;;;5.00;0.30;;;-1.40;99.90;;;;;;5073648;28;20467;-94
2024/01/18 06:21:09;;;;;;;4.55;0.15;;;-1.40;99.90;;;;;;5071447;28;20418;-94
2024/01/18 06:23:35;;;;;;;5.15;0.30;;;-1.50;99.90;;;;;;5073722;28;20469;-93
2024/01/18 06:26:01;;;;;;;3.58;0.35;;;-1.50;99.90;;;;;;5071050;28;20904;-94
2024/01/18 06:28:27;;;;;;;4.68;0.30;;;-1.50;99.90;;;;;;5072858;28;20410;-93
2024/01/18 06:30:53;;;;;;;7.45;0.30;;;-1.50;99.90;;;;;;5071892;28;20512;-93
2024/01/18 06:33:19;;;;;;;4.10;0.20;;;-1.60;99.90;;;;;;5073142;28;20487;-93
2024/01/18 06:35:45;;;;;;;4.10;0.20;;;-1.60;99.90;;;;;;5073188;28;20410;-93
2024/01/18 06:38:11;;;;;;;5.32;0.20;;;-1.30;99.90;;;;;;5072102;28;20409;-93
2024/01/18 06:40:37;;;;;;;2.05;0.20;;;-1.60;99.90;;;;;;5072558;28;20426;-93
2024/01/18 06:43:04;;;;;;;4.38;0.35;;;-1.60;99.90;;;;;;5071644;28;20491;-94
2024/01/18 06:45:29;;;;;;;3.47;0.50;;;-1.30;99.90;;;;;;5073230;28;20402;-92
2024/01/18 06:47:56;;;;;;;6.07;0.67;;;-1.50;99.90;;;;;;5071538;28;20399;-91
2024/01/18 06:50:22;;;;;;;6.00;0.60;;;-1.50;99.90;;;;;;5073121;28;20394;-92
2024/01/18 06:52:48;;;;;;;5.50;0.80;;;-1.60;99.90;;;;;;5072778;28;20821;-92
2024/01/18 06:55:14;;;;;;;3.33;0.50;;;-1.60;99.90;;;;;;5072482;28;20796;-93
2024/01/18 06:57:40;;;;;;;3.88;0.50;;;-1.50;99.90;;;;;;5073188;28;20404;-95
2024/01/18 07:00:07;;;;;;;3.22;0.50;;;-1.70;99.90;;;;;;5071056;28;20402;-94
2024/01/18 07:02:33;;;;;;;4.95;0.60;;;-1.70;99.90;;;;;;5071990;28;20512;-93
2024/01/18 07:04:59;;;;;;;4.75;0.75;;;-1.70;99.90;;;;;;5071207;28;20440;-94
2024/01/18 07:07:25;;;;;;;4.97;0.70;;;-1.50;99.90;;;;;;5072902;28;20433;-93
2024/01/18 07:09:51;;;;;;;4.07;0.70;;;-1.90;99.90;;;;;;5071324;28;20840;-93
2024/01/18 07:12:17;;;;;;;4.00;0.45;;;-1.90;99.90;;;;;;5071439;28;20403;-94
2024/01/18 07:14:43;;;;;;;4.60;0.60;;;-2.00;99.90;;;;;;5072802;28;20433;-93
2024/01/18 07:17:10;;;;;;;4.90;0.63;;;-2.00;99.90;;;;;;5070781;28;20418;-93
2024/01/18 07:19:36;;;;;;;4.57;0.80;;;-2.10;99.90;;;;;;5072714;28;20410;-93
2024/01/18 07:22:02;;;;;;;5.78;0.68;;;-2.10;99.90;;;;;;5070868;28;20475;-94
2024/01/18 07:24:30;;;;;;;5.57;0.60;;;-2.10;99.90;;;;;;5072551;28;20788;-92
2024/01/18 07:26:57;;;;;;;5.57;0.50;;;-2.10;99.90;;;;;;5070896;28;20410;-93
2024/01/18 07:29:23;;;;;;;6.47;0.95;;;-2.00;99.90;;;;;;5072515;28;20402;-94
2024/01/18 07:31:49;;;;;;;5.95;0.50;;;-2.00;99.90;;;;;;5072158;28;20757;-93
2024/01/18 07:34:18;;;;;;;4.57;0.70;;;-1.80;99.90;;;;;;5071221;28;20406;-93
2024/01/18 07:36:43;;;;;;;6.90;0.90;;;-1.80;99.90;;;;;;5072277;28;20441;-94
2024/01/18 07:39:10;;;;;;;5.43;0.70;;;-1.80;99.90;;;;;;5069933;28;20445;-93
2024/01/18 07:41:36;;;;;;;7.25;0.80;;;-1.80;99.90;;;;;;5072050;28;20426;-93
2024/01/18 07:44:02;;;;;;;7.00;1.40;;;-1.50;99.90;;;;;;5070352;28;20845;-92
2024/01/18 07:46:28;;;;;;;4.43;1.40;;;-1.80;99.90;;;;;;5072182;28;20410;-94
2024/01/18 07:48:53;;;;;;;6.20;2.07;;;-1.80;99.90;;;;;;5071273;28;20491;-94
2024/01/18 07:51:19;;;;;;;9.20;2.07;;;-1.90;99.90;;;;;;5070896;28;20564;-94
2024/01/18 07:53:45;;;;;;;6.10;1.33;;;-1.90;99.90;;;;;;5072160;28;20406;-93
2024/01/18 07:56:11;;;;;;;6.07;1.30;;;-1.90;99.90;;;;;;5070753;28;20410;-92
2024/01/18 07:58:40;;;;;;;6.45;0.90;;;-1.70;99.90;;;;;;5071901;28;20410;-93
2024/01/18 08:01:07;;;;;;;9.07;0.80;;;-1.90;99.90;;;;;;5069936;28;20506;-93
2024/01/18 08:03:33;;;;;;;5.00;0.90;;;-2.00;99.90;;;;;;5071882;28;20394;-93
2024/01/18 08:05:58;;;;;;;5.77;0.80;;;-1.90;99.90;;;;;;5070463;28;20476;-93
2024/01/18 08:08:24;;;;;;;6.90;1.10;;;-2.00;99.90;;;;;;5071284;28;20406;-93
2024/01/18 08:10:50;;;;;;;6.67;1.07;;;-2.00;99.90;;;;;;5071281;28;20406;-94
2024/01/18 08:13:15;;;;;;;6.55;1.10;;;-2.00;99.90;;;;;;5070142;28;20539;-92
2024/01/18 08:15:41;;;;;;;6.00;1.52;;;-2.10;99.90;;;;;;5071774;28;20481;-93
2024/01/18 08:18:07;;;;;;;5.15;1.20;;;-2.10;99.90;;;;;;5069269;28;20406;-93
2024/01/18 08:20:33;;;;;;;6.40;1.60;;;-2.00;99.90;;;;;;5071978;28;20410;-93
2024/01/18 08:22:58;;;;;;;8.87;1.83;;;-2.10;99.90;;;;;;5069708;28;20425;-92
2024/01/18 08:25:24;;;;;;;5.97;1.00;;;-2.10;99.90;;;;;;5071206;28;20409;-92
2024/01/18 08:27:54;;;;;;;9.07;1.90;;;-2.20;99.90;;;;;;5071000;28;20927;-94
2024/01/18 08:30:20;;;;;;;8.88;1.27;;;-2.10;99.90;;;;;;5070294;28;20902;-93
2024/01/18 08:32:46;;;;;;;5.18;0.60;;;-1.90;99.90;;;;;;5071253;28;20401;-91
2024/01/18 08:35:11;;;;;;;6.70;0.60;;;-1.80;99.90;;;;;;5069235;28;20776;-92
2024/01/18 08:37:37;;;;;;;8.33;1.20;;;-1.80;99.90;;;;;;5071048;28;20488;-93
2024/01/18 08:40:04;;;;;;;6.30;0.85;;;-1.70;99.90;;;;;;5069137;28;20444;-92
2024/01/18 08:42:30;;;;;;;6.07;0.80;;;-1.50;99.90;;;;;;5071172;28;20418;-93
2024/01/18 08:44:56;;;;;;;4.70;0.50;;;-1.40;99.90;;;;;;5069750;28;20406;-93
2024/01/18 08:47:22;;;;;;;6.13;0.60;;;-1.30;99.90;;;;;;5070661;28;20901;-94
2024/01/18 08:49:48;;;;;;;7.27;0.73;;;-1.00;99.90;;;;;;5070445;28;20988;-93
2024/01/18 08:52:14;;;;;;;6.50;0.70;;;-1.10;99.90;;;;;;5069309;28;20454;-92
2024/01/18 08:54:42;;;;;;;6.05;0.82;;;-1.10;99.90;;;;;;5071172;28;20789;-93
2024/01/18 08:57:07;;;;;;;4.15;0.63;;;-1.00;99.90;;;;;;5068954;28;20931;-91
2024/01/18 08:59:36;;;;;;;6.20;1.00;;;-1.10;99.90;;;;;;5070918;28;20402;-92
2024/01/18 09:02:02;;;;;;;6.60;0.73;;;-0.80;99.90;;;;;;5069605;28;20841;-93
2024/01/18 09:04:27;;;;;;;7.57;0.90;;;-0.90;99.90;;;;;;5067970;28;20420;-92
2024/01/18 09:06:53;;;;;;;5.33;1.00;;;-0.90;99.90;;;;;;5067526;28;20441;-92
2024/01/18 09:09:19;;;;;;;6.57;1.08;;;-0.90;99.90;;;;;;5067960;28;20497;-92
2024/01/18 09:11:45;;;;;;;5.20;0.90;;;-0.70;99.90;;;;;;5069940;28;20467;-93
2024/01/18 09:14:10;;;;;;;4.93;0.90;;;-0.60;99.90;;;;;;5068421;28;20413;-93
2024/01/18 09:16:37;;;;;;;4.97;0.93;;;-0.60;99.90;;;;;;5070280;28;20489;-94
2024/01/18 09:19:03;;;;;;;4.17;0.60;;;-0.50;99.90;;;;;;5068966;28;20836;-93
2024/01/18 09:21:28;;;;;;;6.80;0.70;;;-0.40;99.90;;;;;;5069746;28;20453;-93
2024/01/18 09:23:54;;;;;;;7.27;0.83;;;-0.20;99.90;;;;;;5069389;28;20545;-93
2024/01/18 09:26:20;;;;;;;5.07;0.50;;;-0.30;99.90;;;;;;5069377;28;20413;-95
2024/01/18 09:28:45;;;;;;;3.55;0.40;;;0.00;99.90;;;;;;5069253;28;20402;-95
2024/01/18 09:31:12;;;;;;;6.07;0.60;;;0.00;99.90;;;;;;5068147;28;20823;-92
2024/01/18 09:33:38;;;;;;;6.30;0.47;;;0.10;99.90;;;;;;5070829;28;20398;-93
2024/01/18 09:36:05;;;;;;;3.77;0.40;;;0.30;99.90;;;;;;5066413;28;20897;-93
2024/01/18 09:38:31;;;;;;;2.90;0.50;;;0.40;99.90;;;;;;5070034;28;20405;-92
2024/01/18 09:41:01;;;;;;;4.05;0.60;;;0.50;99.90;;;;;;5068385;28;20913;-92
2024/01/18 09:43:29;;;;;;;2.95;0.60;;;0.80;99.90;;;;;;5069440;28;20874;-93
2024/01/18 09:45:58;;;;;;;7.20;0.65;;;1.00;99.90;;;;;;5070150;28;20428;-92
2024/01/18 09:48:25;;;;;;;3.55;0.30;;;1.50;99.90;;;;;;5068296;28;20394;-92
2024/01/18 09:50:52;;;;;;;4.60;0.43;;;2.00;99.90;;;;;;5070596;28;20777;-94
2024/01/18 09:53:17;;;;;;;2.72;0.28;;;2.20;99.90;;;;;;5067448;28;20414;-91
2024/01/18 09:55:46;;;;;;;3.95;0.40;;;2.10;99.90;;;;;;5070211;28;20390;-93
2024/01/18 09:58:13;;;;;;;4.40;0.52;;;2.20;99.90;;;;;;5069334;28;20971;-93
2024/01/18 10:00:55;;;;;;;3.45;0.35;;;2.20;99.90;;;;;;5069870;28;20416;-92
2024/01/18 10:03:21;;;;;;;3.53;0.40;;;2.30;99.90;;;;;;5073492;28;20768;-94
2024/01/18 10:05:47;;;;;;;2.42;0.20;;;2.30;99.90;;;;;;5071264;28;20409;-93
2024/01/18 10:08:13;;;;;;;1.80;0.10;;;2.20;99.90;;;;;;5073571;28;20398;-92
2024/01/18 10:10:38;;;;;;;2.72;0.10;;;2.20;99.90;;;;;;5070819;28;20485;-93
2024/01/18 10:13:04;;;;;;;3.28;0.10;;;2.20;99.90;;;;;;5073302;28;20464;-93
2024/01/18 10:15:32;;;;;;;2.17;0.20;;;2.00;99.90;;;;;;5071018;28;20412;-94
2024/01/18 10:18:05;;;;;;;3.38;0.17;;;2.00;99.90;;;;;;5072908;28;20478;-93
2024/01/18 10:20:31;;;;;;;2.87;0.10;;;1.80;99.90;;;;;;5072713;28;20907;-92
2024/01/18 10:23:01;;;;;;;2.78;0.30;;;1.80;99.90;;;;;;5071360;28;20409;-93
2024/01/18 10:25:27;;;;;;;2.65;0.40;;;1.80;99.90;;;;;;5073303;28;20422;-92
2024/01/18 10:27:54;;;;;;;2.30;0.20;;;1.80;99.90;;;;;;5071057;28;20386;-93
2024/01/18 10:30:20;;;;;;;1.55;0.20;;;1.80;99.90;;;;;;5073062;28;20398;-91
2024/01/18 10:32:45;;;;;;;2.90;0.10;;;2.00;99.90;;;;;;5070759;28;20410;-93
2024/01/18 10:35:20;;;;;;;2.60;0.20;;;2.10;99.90;;;;;;5072580;28;20514;-92
2024/01/18 10:37:47;;;;;;;3.10;0.30;;;2.40;99.90;;;;;;5072238;28;20594;-90
2024/01/18 10:40:18;;;;;;;2.10;0.10;;;2.60;99.90;;;;;;5071390;28;20451;-91
2024/01/18 10:42:45;;;;;;;0.90;0.00;;;2.80;99.90;;;;;;5073094;28;20422;-90
2024/01/18 10:45:12;;;;;;;2.90;0.10;;;3.10;99.90;;;;;;5070685;28;20897;-90
2024/01/18 10:47:38;;;;;;;1.35;0.10;;;2.80;99.90;;;;;;5073074;28;20480;-90
2024/01/18 10:50:06;;;;;;;2.05;0.10;;;3.00;99.90;;;;;;5071258;28;20398;-91
2024/01/18 10:52:35;;;;;;;2.20;0.20;;;3.00;99.90;;;;;;5072926;28;20420;-89
2024/01/18 10:55:06;;;;;;;3.13;0.20;;;3.30;99.90;;;;;;5072630;28;20412;-91
2024/01/18 10:57:32;;;;;;;2.70;0.20;;;3.00;99.90;;;;;;5071380;28;20464;-90
2024/01/18 10:59:59;;;;;;;2.73;0.20;;;2.90;99.90;;;;;;5071505;28;20406;-91
2024/01/18 11:02:25;;;;;;;2.00;0.20;;;2.80;99.90;;;;;;5050502;28;20420;-90
2024/01/18 11:04:54;;;;;;;1.88;0.10;;;2.60;99.90;;;;;;5052431;28;20477;-91
2024/01/18 11:07:21;;;;;;;2.33;0.20;;;2.50;99.90;;;;;;5050455;28;20925;-92
2024/01/18 11:09:47;;;;;;;3.38;0.20;;;2.50;99.90;;;;;;5052223;28;20396;-92
2024/01/18 11:12:14;;;;;;;2.55;0.20;;;2.30;99.90;;;;;;5058072;28;20477;-91
2024/01/18 11:14:41;;;;;;;1.80;0.13;;;2.20;99.90;;;;;;5070841;28;20972;-91
2024/01/18 11:17:14;;;;;;;3.45;0.10;;;2.10;99.90;;;;;;5070577;28;20449;-92
2024/01/18 11:19:43;;;;;;;2.08;0.10;;;1.90;99.90;;;;;;5070668;28;20398;-90
2024/01/18 11:22:26;;;;;;;6.47;0.50;;;1.90;99.90;;;;;;5072258;28;20511;-91
2024/01/18 11:24:52;;;;;;;2.93;0.40;;;1.80;99.90;;;;;;5071774;28;20517;-90
2024/01/18 11:27:22;;;;;;;3.63;0.20;;;1.70;99.90;;;;;;5071710;28;20413;-92
2024/01/18 11:29:49;;;;;;;2.57;0.40;;;1.70;99.90;;;;;;5071328;28;20448;-92
2024/01/18 11:32:18;;;;;;;3.20;0.10;;;2.10;99.90;;;;;;5070241;28;20413;-90
2024/01/18 11:34:45;;;;;;;2.47;0.40;;;2.70;99.90;;;;;;5071991;28;20402;-91
2024/01/18 11:37:16;;;;;;;1.92;0.20;;;3.30;99.90;;;;;;5069545;28;20402;-91
2024/01/18 11:39:48;;;;;;;2.58;0.20;;;4.00;99.90;;;;;;5072442;28;20810;-91
2024/01/18 11:42:24;;;;;;;3.10;0.30;;;4.50;99.90;;;;;;5070166;28;20921;-90
2024/01/18 11:44:53;;;;;;;6.15;1.75;;;4.90;99.90;;;;;;5071326;28;20786;-91
2024/01/18 11:47:19;;;;;;;3.70;0.73;;;4.90;99.90;;;;;;5071601;28;20486;-90
2024/01/18 11:49:46;;;;;;;2.20;0.20;;;4.90;99.90;;;;;;5069975;28;20933;-90
2024/01/18 11:52:13;;;;;;;3.45;0.30;;;4.40;99.90;;;;;;5071942;28;20463;-91
2024/01/18 11:54:42;;;;;;;1.98;0.20;;;4.10;99.90;;;;;;5069796;28;20402;-92
2024/01/18 11:57:14;;;;;;;4.00;0.20;;;3.80;99.90;;;;;;5072001;28;20438;-91
2024/01/18 11:59:45;;;;;;;1.48;0.20;;;3.80;99.90;;;;;;5069922;28;20398;-92
2024/01/18 12:02:11;;;;;;;2.97;0.20;;;4.40;99.90;;;;;;5070515;28;20512;-92
2024/01/18 12:04:37;;;;;;;2.60;0.20;;;5.00;99.90;;;;;;5071609;28;20432;-90
2024/01/18 12:07:05;;;;;;;2.67;0.28;;;5.50;99.90;;;;;;5069825;28;20398;-92
2024/01/18 12:09:31;;;;;;;3.80;0.40;;;5.90;99.90;;;;;;5071717;28;20900;-92
2024/01/18 12:11:59;;;;;;;3.00;0.30;;;6.20;99.90;;;;;;5069015;28;20440;-92
2024/01/18 12:14:25;;;;;;;3.75;0.32;;;6.70;99.90;;;;;;5071142;28;20448;-92
2024/01/18 12:16:51;;;;;;;3.17;0.30;;;7.30;99.90;;;;;;5070148;28;20398;-91
2024/01/18 12:19:33;;;;;;;3.10;0.20;;;7.70;99.90;;;;;;5070427;28;20425;-91
2024/01/18 12:22:02;;;;;;;2.00;0.20;;;8.00;97.60;;;;;;5070599;28;20434;-90
2024/01/18 12:24:28;;;;;;;2.03;0.15;;;8.00;95.00;;;;;;5068722;28;20412;-91
2024/01/18 12:26:54;;;;;;;3.80;0.30;;;7.90;94.80;;;;;;5070621;28;20417;-93
2024/01/18 12:29:20;;;;;;;4.22;0.20;;;7.70;99.90;;;;;;5068453;28;20843;-91
2024/01/18 12:31:49;;;;;;;3.50;0.33;;;7.30;99.90;;;;;;5070674;28;20431;-92
2024/01/18 12:34:20;;;;;;;4.35;0.40;;;7.00;99.90;;;;;;5067979;28;20402;-89
2024/01/18 12:36:46;;;;;;;2.53;0.20;;;6.50;99.90;;;;;;5069392;28;20401;-91
2024/01/18 12:39:12;;;;;;;3.50;0.30;;;6.40;99.90;;;;;;5069447;28;20410;-92
2024/01/18 12:41:38;;;;;;;3.22;0.30;;;6.30;99.90;;;;;;5067576;28;20433;-91
2024/01/18 12:44:07;;;;;;;3.90;0.20;;;6.20;99.90;;;;;;5069544;28;20636;-91
2024/01/18 12:46:36;;;;;;;2.47;0.23;;;6.30;99.90;;;;;;5062855;28;20423;-92